Main page
METAR-TAF:

METAR-TAF

Airports :

Damascus International Airport

Damascus, Syria

latitude: 33-25N, longitude: 036-31E, elevation: 608 m

Current weather observation

The report was made 58 minutes ago, at 01:00 UTC
Wind 4 kt from the West/Southwest
Temperature 17°C
Humidity 48%
Pressure 1015 hPa
Visibility: 7000 m

METAR: OSDI 180100Z 24004KT 7000 17/06 Q1015

Time: 04:58 (01:58 UTC)

Forecast

The report was made 2 hours and 58 minutes ago, at 23:00 UTC
Forecast valid from 18 at 00 UTC to 19 at 06 UTC
Wind 10 kt from the East/Northeast
Visibility: 8000 m
Few clouds at a height of 3000 ft
Temporary
from 18 at 09 UTC to 18 at 18 UTC
Wind 10 kt from the Southwest
Visibility 10 km or more
Few clouds at a height of 3000 ft
Scattered clouds at a height of 10000 ft

TAF: OSDI 172300Z 1800/1906 06010KT 8000 FEW030 TEMPO 1809/1818 22010KT 9999 FEW030 SCT100

Weather observations and forecasts of more than 4000 airports (METAR and TAF reports).

The available stations are represented by yellow and red dots on the map.

Hover mouse over dot to see the name of the station.

Then click to see weather observations and forecasts.

To change the map : click on the green buttons with a black cross to zoom in, on the green button with a dash to zoom out, or on the green arrows for adjacent maps.


METAR-TAF: